Time;durP1;ratioP1;P1;durP2;ratioP2;P2;SDS_P1;SDS_P2;PMS_P1;PMS_P2;Temp;Humidity;BMP_temperature;BMP_pressure;BME280_temperature;BME280_humidity;BME280_pressure;Samples;Min_cycle;Max_cycle;Signal;HPM_P1;HPM_P2
2024/04/05 00:01:29;;;;;;;16.80;5.05;;;;;;;12.38;100.00;100900.19;5050378;28;20086;-71
2024/04/05 00:04:17;;;;;;;19.77;5.45;;;;;;;12.38;100.00;100895.53;5072380;28;20040;-70
2024/04/05 00:07:04;;;;;;;20.42;4.82;;;;;;;12.39;100.00;100891.72;5084971;28;20043;-71
2024/04/05 00:09:51;;;;;;;23.08;6.35;;;;;;;12.39;100.00;100890.88;5048172;28;20079;-70
2024/04/05 00:12:38;;;;;;;18.23;5.05;;;;;;;12.36;100.00;100893.09;5066457;28;20400;-70
2024/04/05 00:15:25;;;;;;;22.55;5.05;;;;;;;12.36;100.00;100887.66;5040706;28;20105;-71
2024/04/05 00:18:12;;;;;;;23.70;5.65;;;;;;;12.36;100.00;100881.34;5086415;28;20105;-69
2024/04/05 00:20:59;;;;;;;20.65;5.15;;;;;;;12.36;100.00;100875.88;5055002;28;20462;-71
2024/04/05 00:23:48;;;;;;;22.27;5.82;;;;;;;12.33;100.00;100869.06;5084929;28;20499;-69
2024/04/05 00:26:36;;;;;;;21.45;5.35;;;;;;;12.33;100.00;100871.78;5078865;28;20047;-69
2024/04/05 00:29:23;;;;;;;20.92;5.40;;;;;;;12.33;100.00;100874.50;5078259;28;20040;-69
2024/04/05 00:32:10;;;;;;;23.67;5.90;;;;;;;12.33;100.00;100882.72;5076516;27;20044;-69
2024/04/05 00:34:57;;;;;;;22.48;5.93;;;;;;;12.32;100.00;100880.28;5063523;28;20080;-70
2024/04/05 00:37:44;;;;;;;17.58;4.82;;;;;;;12.32;100.00;100881.09;5093256;28;20043;-70
2024/04/05 00:40:31;;;;;;;19.63;4.97;;;;;;;12.33;100.00;100877.25;5084417;28;20143;-70
2024/04/05 00:43:19;;;;;;;22.23;5.20;;;;;;;12.34;100.00;100884.38;5082587;28;20136;-70
2024/04/05 00:46:06;;;;;;;22.38;5.78;;;;;;;12.33;100.00;100888.19;5083576;28;20078;-69
2024/04/05 00:48:54;;;;;;;20.13;5.85;;;;;;;12.33;100.00;100871.78;5084983;28;20491;-70
2024/04/05 00:51:41;;;;;;;21.20;5.18;;;;;;;12.33;100.00;100874.50;5084005;28;20075;-70
2024/04/05 00:54:28;;;;;;;20.45;5.93;;;;;;;12.33;100.00;100879.97;5065742;28;20489;-69
2024/04/05 00:57:15;;;;;;;16.02;4.72;;;;;;;12.34;100.00;100878.91;5079111;28;20067;-69
2024/04/05 01:00:04;;;;;;;22.27;5.68;;;;;;;12.34;100.00;100876.16;5078113;28;20051;-70
2024/04/05 01:02:51;;;;;;;21.15;5.45;;;;;;;12.35;100.00;100869.59;5056171;28;20097;-70
2024/04/05 01:05:39;;;;;;;21.60;5.45;;;;;;;12.35;100.00;100863.31;5097161;27;20085;-70
2024/04/05 01:08:26;;;;;;;21.83;5.72;;;;;;;12.34;100.00;100867.97;5104758;27;20075;-70
2024/04/05 01:11:13;;;;;;;22.80;5.60;;;;;;;12.33;100.00;100869.06;5103121;27;20086;-69
2024/04/05 01:14:00;;;;;;;21.27;5.63;;;;;;;12.33;100.00;100863.59;5073778;28;20392;-69
2024/04/05 01:16:47;;;;;;;17.67;5.15;;;;;;;12.33;100.00;100871.78;5090512;27;20054;-69
2024/04/05 01:19:34;;;;;;;18.63;5.10;;;;;;;12.33;100.00;100876.44;5078299;28;20071;-70
2024/04/05 01:22:27;;;;;;;18.05;5.47;;;;;;;12.33;100.00;100879.16;5050456;28;20044;-69
2024/04/05 01:25:14;;;;;;;16.77;5.30;;;;;;;12.32;100.00;100870.16;5082383;28;20047;-70
2024/04/05 01:28:03;;;;;;;21.80;5.72;;;;;;;12.32;100.00;100867.44;5067716;28;20453;-70
2024/04/05 01:30:50;;;;;;;20.25;5.20;;;;;;;12.32;100.00;100866.63;5083556;28;20051;-71
2024/04/05 01:33:37;;;;;;;21.63;5.70;;;;;;;12.31;100.00;100865.81;5069108;28;20047;-71
2024/04/05 01:36:24;;;;;;;18.23;5.03;;;;;;;12.31;100.00;100859.50;5037921;28;20052;-70
2024/04/05 01:39:11;;;;;;;17.08;4.93;;;;;;;12.29;100.00;100869.88;5091031;28;20059;-69
2024/04/05 01:41:58;;;;;;;22.52;5.38;;;;;;;12.27;100.00;100862.00;5053635;28;20051;-70
2024/04/05 01:44:45;;;;;;;19.92;4.82;;;;;;;12.26;100.00;100865.78;5066967;28;20048;-69
2024/04/05 01:47:32;;;;;;;22.15;5.32;;;;;;;12.24;100.00;100857.09;5055878;28;20128;-69
2024/04/05 01:50:19;;;;;;;19.48;5.63;;;;;;;12.21;100.00;100868.53;5049972;28;20443;-70
2024/04/05 01:53:06;;;;;;;21.10;6.20;;;;;;;12.18;100.00;100863.66;5076380;28;20040;-70
2024/04/05 01:55:53;;;;;;;23.92;5.70;;;;;;;12.19;100.00;100861.72;5097336;28;20092;-69
2024/04/05 01:58:40;;;;;;;19.05;5.38;;;;;;;12.15;100.00;100861.47;5047893;28;20048;-69
2024/04/05 02:01:27;;;;;;;22.33;6.10;;;;;;;12.17;100.00;100855.72;5049494;28;20095;-71
2024/04/05 02:04:14;;;;;;;21.08;5.45;;;;;;;12.15;100.00;100858.75;5075801;28;20495;-69
2024/04/05 02:07:01;;;;;;;22.85;5.93;;;;;;;12.16;100.00;100843.97;5057447;28;20517;-69
2024/04/05 02:09:49;;;;;;;24.10;5.97;;;;;;;12.15;100.00;100845.09;5069098;28;20127;-69
2024/04/05 02:12:36;;;;;;;21.25;5.20;;;;;;;12.13;100.00;100844.53;5068444;28;20040;-70
2024/04/05 02:15:23;;;;;;;22.95;5.97;;;;;;;12.12;100.00;100837.44;5082705;28;20059;-69
2024/04/05 02:18:10;;;;;;;23.35;6.00;;;;;;;12.08;100.00;100831.72;5082760;28;20507;-69
2024/04/05 02:20:58;;;;;;;23.55;5.75;;;;;;;12.05;100.00;100842.38;5082454;28;20055;-69
2024/04/05 02:23:45;;;;;;;26.45;6.30;;;;;;;12.05;100.00;100845.94;5062495;28;20059;-69
2024/04/05 02:26:32;;;;;;;22.95;6.32;;;;;;;12.04;100.00;100848.94;5062523;28;20078;-70
2024/04/05 02:29:19;;;;;;;23.13;5.70;;;;;;;12.04;100.00;100851.66;5077528;28;20044;-69
2024/04/05 02:32:06;;;;;;;19.08;5.30;;;;;;;12.05;100.00;100850.56;5097696;28;20287;-69
2024/04/05 02:34:53;;;;;;;21.58;6.05;;;;;;;12.05;100.00;100850.56;5056015;28;20054;-69
2024/04/05 02:37:40;;;;;;;22.85;6.15;;;;;;;12.06;100.00;100844.03;5082090;28;20055;-69
2024/04/05 02:40:27;;;;;;;18.13;5.60;;;;;;;12.04;100.00;100852.47;5102343;28;20176;-70
2024/04/05 02:43:14;;;;;;;18.98;5.60;;;;;;;12.05;100.00;100856.03;5093091;28;20071;-70
2024/04/05 02:46:00;;;;;;;17.00;5.30;;;;;;;12.04;100.00;100854.41;5105106;28;20047;-71
2024/04/05 02:48:47;;;;;;;18.88;5.55;;;;;;;12.04;100.00;100863.41;5108497;28;20043;-73
2024/04/05 02:51:35;;;;;;;20.70;5.72;;;;;;;12.03;100.00;100855.50;5125673;28;20040;-72
2024/04/05 02:54:22;;;;;;;21.27;5.65;;;;;;;12.04;100.00;100854.41;5088913;28;20078;-70
2024/04/05 02:57:09;;;;;;;19.88;5.07;;;;;;;12.02;100.00;100849.19;5083908;28;20047;-70
2024/04/05 02:59:56;;;;;;;21.52;5.13;;;;;;;12.04;100.00;100848.94;5084522;28;20043;-70
2024/04/05 03:02:44;;;;;;;25.25;5.63;;;;;;;12.05;100.00;100856.88;5067710;28;20511;-71
2024/04/05 03:05:31;;;;;;;20.38;5.88;;;;;;;12.04;100.00;100851.66;5082423;28;20055;-70
2024/04/05 03:08:18;;;;;;;20.88;5.75;;;;;;;12.05;100.00;100858.75;5082806;28;20078;-72
2024/04/05 03:11:05;;;;;;;21.60;6.03;;;;;;;12.06;100.00;100855.75;5082125;28;20087;-72
2024/04/05 03:13:52;;;;;;;19.00;4.80;;;;;;;12.05;100.00;100853.28;5050712;28;20064;-71
2024/04/05 03:16:39;;;;;;;17.63;5.55;;;;;;;12.05;100.00;100839.63;5089871;28;20090;-71
2024/04/05 03:19:26;;;;;;;18.25;5.55;;;;;;;12.02;100.00;100826.53;5035745;28;20048;-70
2024/04/05 03:22:13;;;;;;;18.80;5.30;;;;;;;12.00;100.00;100831.47;5066226;28;20051;-70
2024/04/05 03:25:00;;;;;;;21.85;6.78;;;;;;;12.00;100.00;100828.72;5061977;28;20093;-69
2024/04/05 03:27:47;;;;;;;18.02;5.28;;;;;;;11.99;100.00;100835.31;5090508;28;20073;-70
2024/04/05 03:30:35;;;;;;;15.95;5.10;;;;;;;12.00;100.00;100839.66;5088867;28;20121;-69
2024/04/05 03:33:22;;;;;;;19.02;5.30;;;;;;;12.01;100.00;100824.94;5066030;28;20478;-69
2024/04/05 03:36:09;;;;;;;20.48;5.25;;;;;;;12.04;100.00;100829.81;5079343;28;20050;-69
2024/04/05 03:39:00;;;;;;;17.88;5.47;;;;;;;12.02;100.00;100827.34;5097256;28;20043;-69
2024/04/05 03:41:49;;;;;;;17.48;4.40;;;;;;;12.05;100.00;100815.91;5081353;28;20039;-70
2024/04/05 03:44:36;;;;;;;16.10;4.93;;;;;;;12.04;100.00;100824.34;5082644;28;20048;-70
2024/04/05 03:47:23;;;;;;;19.77;5.03;;;;;;;12.05;100.00;100815.06;5061322;28;20056;-70
2024/04/05 03:50:10;;;;;;;20.58;5.05;;;;;;;12.07;100.00;100821.06;5096287;28;20419;-70
2024/04/05 03:52:57;;;;;;;15.25;4.82;;;;;;;12.07;100.00;100821.06;5082382;28;20048;-70
2024/04/05 03:55:44;;;;;;;14.77;4.45;;;;;;;12.06;100.00;100833.09;5096731;28;20044;-70
2024/04/05 03:58:30;;;;;;;19.10;5.15;;;;;;;12.08;100.00;100815.34;5101290;28;20089;-69
2024/04/05 04:01:18;;;;;;;20.27;5.38;;;;;;;12.07;100.00;100815.59;5091856;28;20051;-69
2024/04/05 04:04:05;;;;;;;15.95;4.53;;;;;;;12.08;100.00;100803.59;5079301;28;20484;-69
2024/04/05 04:06:52;;;;;;;17.02;4.70;;;;;;;12.08;100.00;100779.84;5073122;28;20047;-69
2024/04/05 04:09:39;;;;;;;13.48;4.10;;;;;;;12.08;100.00;100788.03;5069635;28;20464;-69
2024/04/05 04:12:26;;;;;;;16.10;4.82;;;;;;;12.10;100.00;100768.63;5093808;28;20044;-69
2024/04/05 04:15:15;;;;;;;19.88;4.63;;;;;;;12.09;100.00;100767.78;5098137;28;20077;-69
2024/04/05 04:18:03;;;;;;;13.30;4.15;;;;;;;12.10;100.00;100790.50;5058056;28;20046;-70
2024/04/05 04:20:50;;;;;;;13.63;4.53;;;;;;;12.10;100.00;100776.84;5085466;28;20159;-69
2024/04/05 04:23:38;;;;;;;16.60;4.43;;;;;;;12.11;100.00;100781.19;5057825;28;20047;-70
2024/04/05 04:26:25;;;;;;;17.88;4.80;;;;;;;12.11;100.00;100781.19;5082173;28;20063;-69
2024/04/05 04:29:12;;;;;;;15.38;4.43;;;;;;;12.08;100.00;100770.81;5078855;28;20047;-69
2024/04/05 04:32:00;;;;;;;18.10;5.10;;;;;;;12.09;100.00;100772.44;5084109;28;20128;-70
2024/04/05 04:34:47;;;;;;;23.15;5.50;;;;;;;12.10;100.00;100782.28;5098941;28;20591;-70
2024/04/05 04:37:34;;;;;;;15.48;4.78;;;;;;;12.09;100.00;100783.38;5065116;28;20051;-70
2024/04/05 04:40:21;;;;;;;17.27;4.05;;;;;;;12.10;100.00;100790.50;5071060;28;20086;-70
2024/04/05 04:43:08;;;;;;;15.77;4.32;;;;;;;12.08;100.00;100795.41;5084249;28;20058;-69
2024/04/05 04:45:55;;;;;;;14.48;4.10;;;;;;;12.10;100.00;100793.22;5085012;28;20048;-69
2024/04/05 04:48:42;;;;;;;13.60;3.92;;;;;;;12.09;100.00;100786.09;5099127;28;20073;-69
2024/04/05 04:51:29;;;;;;;15.63;4.35;;;;;;;12.10;100.00;100790.50;5099050;28;20051;-70
2024/04/05 04:54:16;;;;;;;19.50;4.90;;;;;;;12.09;100.00;100777.91;5056487;28;20067;-70
2024/04/05 04:57:03;;;;;;;13.45;4.22;;;;;;;12.09;100.00;100773.25;5055097;28;20449;-70
2024/04/05 04:59:53;;;;;;;16.83;4.78;;;;;;;12.08;100.00;100771.63;5083982;28;20443;-70
2024/04/05 05:02:43;;;;;;;13.07;3.78;;;;;;;12.08;100.00;100762.63;5065346;28;20569;-70
2024/04/05 05:05:30;;;;;;;18.73;4.70;;;;;;;12.09;100.00;100767.78;5065767;28;20048;-69
2024/04/05 05:08:17;;;;;;;15.70;4.70;;;;;;;12.11;100.00;100770.25;5075859;28;20074;-70
2024/04/05 05:11:05;;;;;;;14.88;3.95;;;;;;;12.11;100.00;100764.81;5071167;28;20059;-71
2024/04/05 05:13:53;;;;;;;13.15;4.38;;;;;;;12.11;100.00;100771.06;5082968;28;20059;-69
2024/04/05 05:16:40;;;;;;;16.40;4.28;;;;;;;12.10;100.00;100752.25;5081878;28;20091;-69
2024/04/05 05:19:27;;;;;;;14.00;4.18;;;;;;;12.12;100.00;100753.59;5074743;28;20065;-68
2024/04/05 05:22:14;;;;;;;14.13;4.50;;;;;;;12.15;100.00;100738.56;5090056;28;20043;-69
2024/04/05 05:25:01;;;;;;;15.05;4.28;;;;;;;12.11;100.00;100742.94;5065421;28;20558;-68
2024/04/05 05:27:49;;;;;;;13.95;4.05;;;;;;;12.08;100.00;100738.88;5072934;28;20046;-71
2024/04/05 05:30:39;;;;;;;16.63;4.25;;;;;;;12.10;100.00;100735.88;5071670;28;20051;-70
2024/04/05 05:33:27;;;;;;;17.75;5.10;;;;;;;12.12;100.00;100733.66;5072238;28;20101;-70
2024/04/05 05:36:14;;;;;;;15.13;4.13;;;;;;;12.13;100.00;100724.38;5098246;28;20044;-70
2024/04/05 05:39:02;;;;;;;17.75;4.32;;;;;;;12.12;100.00;100714.53;5085368;28;20051;-70
2024/04/05 05:41:49;;;;;;;19.42;4.88;;;;;;;12.10;100.00;100703.09;5097980;28;20626;-70
2024/04/05 05:44:36;;;;;;;13.23;3.67;;;;;;;12.10;100.00;100694.91;5084822;28;20044;-69
2024/04/05 05:47:23;;;;;;;18.58;4.45;;;;;;;12.12;100.00;100703.59;5100588;28;20126;-69
2024/04/05 05:50:10;;;;;;;17.60;4.40;;;;;;;12.10;100.00;100697.63;5079990;28;20039;-69
2024/04/05 05:52:57;;;;;;;18.73;5.15;;;;;;;12.06;100.00;100691.91;5070580;28;20048;-69
2024/04/05 05:55:50;;;;;;;14.88;4.18;;;;;;;12.07;100.00;100681.78;5069126;28;20063;-70
2024/04/05 05:58:39;;;;;;;23.42;6.07;;;;;;;12.10;100.00;100678.50;5048414;28;20044;-70
2024/04/05 06:01:28;;;;;;;18.88;5.20;;;;;;;12.11;100.00;100675.47;5071911;28;20543;-71
2024/04/05 06:04:15;;;;;;;22.00;4.32;;;;;;;12.14;100.00;100665.91;5085035;28;20040;-71
2024/04/05 06:07:02;;;;;;;17.98;4.45;;;;;;;12.19;100.00;100663.13;5095892;28;20071;-69
2024/04/05 06:09:50;;;;;;;18.55;4.43;;;;;;;12.24;100.00;100654.09;5083670;28;20466;-69
2024/04/05 06:12:39;;;;;;;17.52;4.15;;;;;;;12.27;100.00;100643.44;5062048;28;20117;-69
2024/04/05 06:15:27;;;;;;;18.90;5.28;;;;;;;12.28;100.00;100634.13;5076850;28;20145;-71
2024/04/05 06:18:14;;;;;;;15.35;4.53;;;;;;;12.29;100.00;100635.78;5080641;28;20043;-73
2024/04/05 06:21:01;;;;;;;19.20;5.03;;;;;;;12.30;100.00;100647.50;5097947;28;20048;-73
2024/04/05 06:23:48;;;;;;;16.38;4.38;;;;;;;12.31;100.00;100654.59;5097225;28;20040;-71
2024/04/05 06:26:36;;;;;;;22.60;4.78;;;;;;;12.31;100.00;100649.97;5085528;28;20059;-72
2024/04/05 06:29:23;;;;;;;18.67;4.60;;;;;;;12.36;100.00;100651.81;5075457;28;20415;-70
2024/04/05 06:32:10;;;;;;;15.30;4.00;;;;;;;12.35;100.00;100651.00;5048399;28;20051;-71
2024/04/05 06:34:57;;;;;;;14.65;4.45;;;;;;;12.35;100.00;100645.56;5070438;28;20044;-71
2024/04/05 06:37:45;;;;;;;17.27;4.97;;;;;;;12.37;100.00;100637.09;5061950;28;20120;-70
2024/04/05 06:40:33;;;;;;;14.88;3.78;;;;;;;12.39;100.00;100623.13;5077959;28;20454;-72
2024/04/05 06:43:20;;;;;;;14.82;4.32;;;;;;;12.41;100.00;100619.03;5074982;28;20048;-71
2024/04/05 06:46:08;;;;;;;16.83;4.70;;;;;;;12.46;100.00;100615.41;4701559;28;10001388;-72
2024/04/05 06:48:55;;;;;;;16.08;4.35;;;;;;;12.46;100.00;100605.31;5056361;28;20121;-71
2024/04/05 06:51:43;;;;;;;15.13;4.05;;;;;;;12.47;100.00;100604.22;5097208;28;20059;-72
2024/04/05 06:54:30;;;;;;;13.50;3.97;;;;;;;12.51;100.00;100608.00;5093728;28;20459;-74
2024/04/05 06:57:17;;;;;;;14.48;4.43;;;;;;;12.53;100.00;100602.22;5094272;28;20313;-71
2024/04/05 07:00:06;;;;;;;13.65;4.05;;;;;;;12.54;100.00;100601.97;5093938;28;20104;-72
2024/04/05 07:02:53;;;;;;;15.32;4.40;;;;;;;12.55;100.00;100589.94;5111814;28;20051;-75
2024/04/05 07:05:43;;;;;;;15.60;4.05;;;;;;;12.57;100.00;100582.25;5094656;28;20056;-73
2024/04/05 07:08:31;;;;;;;14.73;4.63;;;;;;;12.59;100.00;100579.22;5075084;28;20086;-71
2024/04/05 07:11:18;;;;;;;13.98;4.50;;;;;;;12.61;100.00;100585.22;5066535;28;20381;-71
2024/04/05 07:14:05;;;;;;;14.80;3.97;;;;;;;12.63;100.00;100585.75;5093568;28;20064;-70
2024/04/05 07:16:53;;;;;;;18.13;4.43;;;;;;;12.64;100.00;100598.31;5063049;28;20063;-71
2024/04/05 07:19:39;;;;;;;14.80;4.13;;;;;;;12.65;100.00;100599.97;5063852;28;20438;-71
2024/04/05 07:22:27;;;;;;;11.80;3.70;;;;;;;12.67;100.00;100597.72;5069148;28;20039;-72
2024/04/05 07:25:16;;;;;;;13.70;3.85;;;;;;;12.70;100.00;100597.19;5090504;28;20058;-71
2024/04/05 07:28:03;;;;;;;18.58;4.35;;;;;;;12.72;100.00;100594.13;5060467;28;20440;-74
2024/04/05 07:30:50;;;;;;;16.30;3.78;;;;;;;12.73;100.00;100580.19;5062600;28;20479;-68
2024/04/05 07:33:37;;;;;;;11.75;3.60;;;;;;;12.76;100.00;100576.88;5084267;28;20114;-69
2024/04/05 07:36:25;;;;;;;13.38;4.10;;;;;;;12.76;100.00;100568.69;5094012;28;20047;-70
2024/04/05 07:39:12;;;;;;;17.60;4.05;;;;;;;12.79;100.00;100568.13;5096023;28;20051;-69
2024/04/05 07:41:59;;;;;;;14.50;3.42;;;;;;;12.80;100.00;100560.72;5075631;28;20047;-72
2024/04/05 07:44:47;;;;;;;17.48;3.90;;;;;;;12.81;100.00;100556.06;5057960;28;20054;-71
2024/04/05 07:47:34;;;;;;;12.82;3.83;;;;;;;12.82;100.00;100549.47;5071785;28;20113;-69
2024/04/05 07:50:21;;;;;;;13.25;4.00;;;;;;;12.84;100.00;100552.75;5071850;28;20496;-69
2024/04/05 07:53:08;;;;;;;16.48;3.63;;;;;;;12.86;100.00;100545.06;5100690;28;20068;-69
2024/04/05 07:55:55;;;;;;;15.90;3.97;;;;;;;12.86;100.00;100534.94;5086871;28;20136;-68
2024/04/05 07:58:43;;;;;;;11.55;3.28;;;;;;;12.87;100.00;100535.75;5071807;28;20078;-70
2024/04/05 08:01:30;;;;;;;13.45;3.95;;;;;;;12.88;100.00;100531.94;5078554;28;20051;-68
2024/04/05 08:04:17;;;;;;;10.95;3.47;;;;;;;12.89;100.00;100544.47;5091593;28;20048;-69
2024/04/05 08:07:04;;;;;;;11.57;3.83;;;;;;;12.89;100.00;100560.88;5092697;28;20069;-71
2024/04/05 08:09:52;;;;;;;14.27;3.55;;;;;;;12.91;100.00;100525.88;5084995;28;20039;-69
2024/04/05 08:12:39;;;;;;;8.18;2.90;;;;;;;12.91;100.00;100525.88;5097232;28;20043;-68
2024/04/05 08:15:28;;;;;;;11.27;3.00;;;;;;;12.92;100.00;100505.63;5041151;28;20087;-69
2024/04/05 08:18:15;;;;;;;12.48;3.30;;;;;;;12.92;100.00;100508.38;5099350;28;20096;-69
2024/04/05 08:21:06;;;;;;;9.60;3.22;;;;;;;12.93;100.00;100499.06;5056451;28;20047;-68
2024/04/05 08:23:53;;;;;;;20.13;4.88;;;;;;;12.95;100.00;100499.59;5073118;28;20044;-67
2024/04/05 08:26:40;;;;;;;12.00;3.40;;;;;;;12.97;100.00;100506.38;5084670;28;20082;-69
2024/04/05 08:29:27;;;;;;;9.65;3.03;;;;;;;12.99;100.00;100474.09;5072298;28;20488;-69
2024/04/05 08:32:14;;;;;;;11.00;3.25;;;;;;;13.00;100.00;100475.72;5098383;28;20047;-69
2024/04/05 08:35:01;;;;;;;8.20;3.03;;;;;;;13.04;100.00;100475.16;5047510;28;20052;-69
2024/04/05 08:37:48;;;;;;;9.25;3.10;;;;;;;13.07;100.00;100478.09;5073583;28;20054;-68
2024/04/05 08:40:35;;;;;;;10.02;3.30;;;;;;;13.08;100.00;100465.22;5083563;28;20476;-69
2024/04/05 08:43:26;;;;;;;12.60;3.45;;;;;;;13.10;100.00;100476.69;5083953;28;20071;-68
2024/04/05 08:46:13;;;;;;;10.02;3.30;;;;;;;13.10;100.00;100477.50;5085633;28;20063;-68
2024/04/05 08:49:01;;;;;;;10.82;3.63;;;;;;;13.12;100.00;100482.69;5069929;28;20146;-67
2024/04/05 08:51:50;;;;;;;14.20;3.67;;;;;;;13.12;100.00;100510.84;5063360;28;20063;-68
2024/04/05 08:54:37;;;;;;;13.05;3.60;;;;;;;13.14;100.00;100503.16;5054628;28;20059;-67
2024/04/05 08:57:30;;;;;;;11.82;4.25;;;;;;;13.14;100.00;100536.00;5061836;28;20058;-69
2024/04/05 09:00:23;;;;;;;12.02;3.53;;;;;;;13.15;100.00;100548.56;5068454;28;20102;-67
2024/04/05 09:03:11;;;;;;;11.75;3.78;;;;;;;13.19;100.00;100566.03;5092579;28;20047;-68
2024/04/05 09:05:58;;;;;;;15.68;5.57;;;;;;;13.25;100.00;100555.00;5063444;28;20065;-68
2024/04/05 09:08:54;;;;;;;19.98;5.05;;;;;;;13.30;100.00;100565.91;5095156;28;20104;-68
2024/04/05 09:11:43;;;;;;;14.93;4.70;;;;;;;13.30;100.00;100565.91;5072922;28;20080;-68
2024/04/05 09:14:30;;;;;;;14.90;4.55;;;;;;;13.32;100.00;100577.41;5079593;28;20063;-67
2024/04/05 09:17:17;;;;;;;22.70;6.18;;;;;;;13.40;100.00;100568.56;5040454;28;20495;-67
2024/04/05 09:20:09;;;;;;;16.33;4.75;;;;;;;13.37;100.00;100572.69;5092490;28;20055;-68
2024/04/05 09:23:00;;;;;;;18.38;4.95;;;;;;;13.39;100.00;100575.13;5071481;28;20074;-68
2024/04/05 09:26:01;;;;;;;17.58;4.72;;;;;;;13.35;100.00;100574.09;5086892;28;20416;-68
2024/04/05 09:29:01;;;;;;;15.90;4.40;;;;;;;13.36;100.00;100581.19;5065881;28;20044;-68
2024/04/05 09:31:48;;;;;;;10.05;3.47;;;;;;;13.36;100.00;100570.25;5078500;28;20048;-72
2024/04/05 09:34:39;;;;;;;14.32;4.72;;;;;;;13.41;100.00;100575.66;5064613;28;20508;-67
2024/04/05 09:37:28;;;;;;;9.73;3.97;;;;;;;13.41;100.00;100540.88;5067721;28;20075;-68
2024/04/05 09:40:16;;;;;;;12.10;4.05;;;;;;;13.38;100.00;100540.66;5082039;28;20093;-68
2024/04/05 09:43:04;;;;;;;14.63;3.92;;;;;;;13.38;100.00;100581.72;5075960;28;20092;-67
2024/04/05 09:45:53;;;;;;;8.68;3.10;;;;;;;13.39;100.00;100578.66;5056663;28;20048;-68
2024/04/05 09:48:40;;;;;;;15.13;4.68;;;;;;;13.45;100.00;100568.47;5069196;28;20044;-68
2024/04/05 09:51:46;;;;;;;11.10;3.13;;;;;;;13.53;100.00;100550.59;5057196;28;20052;-68
2024/04/05 09:54:39;;;;;;;11.75;3.03;;;;;;;13.44;100.00;100539.47;5080180;28;20043;-68
2024/04/05 09:57:29;;;;;;;7.20;2.47;;;;;;;13.41;100.00;100518.19;5081786;28;20051;-68
2024/04/05 10:00:24;;;;;;;9.55;3.33;;;;;;;13.41;100.00;100526.38;5080625;28;20101;-68
2024/04/05 10:03:11;;;;;;;8.47;3.13;;;;;;;13.42;100.00;100508.84;5083514;28;20042;-68
2024/04/05 10:06:11;;;;;;;9.73;3.10;;;;;;;13.45;100.00;100512.94;5068211;28;20397;-67
2024/04/05 10:08:58;;;;;;;9.65;3.20;;;;;;;13.49;100.00;100516.69;5098238;28;20496;-67
2024/04/05 10:11:52;;;;;;;8.15;2.80;;;;;;;13.53;100.00;100504.88;5068842;28;20411;-67
2024/04/05 10:14:40;;;;;;;7.93;2.97;;;;;;;13.60;100.00;100505.31;5074825;27;20060;-68
2024/04/05 10:17:29;;;;;;;8.05;2.72;;;;;;;13.67;100.00;100515.09;5056066;28;20039;-66
2024/04/05 10:20:16;;;;;;;8.95;2.95;;;;;;;13.74;100.00;100518.28;5070084;28;20039;-70
2024/04/05 10:23:03;;;;;;;10.07;3.22;;;;;;;13.78;100.00;100511.06;5080568;28;20051;-68
2024/04/05 10:25:52;;;;;;;12.30;3.47;;;;;;;13.82;100.00;100517.59;5081797;28;20086;-72
2024/04/05 10:28:39;;;;;;;8.65;3.03;;;;;;;13.88;100.00;100527.38;5076127;28;20129;-67
2024/04/05 10:31:26;;;;;;;6.80;2.65;;;;;;;13.93;100.00;100512.78;5078223;28;20052;-67
2024/04/05 10:34:13;;;;;;;9.52;2.90;;;;;;;14.01;100.00;100515.63;5070802;28;20055;-66
2024/04/05 10:37:04;;;;;;;8.15;2.70;;;;;;;14.10;100.00;100512.22;5096139;28;20051;-68
2024/04/05 10:40:03;;;;;;;12.50;2.92;;;;;;;14.16;100.00;100514.56;5069590;28;20086;-69
2024/04/05 10:42:50;;;;;;;6.70;2.67;;;;;;;14.20;100.00;100504.66;5093910;28;20538;-70
2024/04/05 10:45:38;;;;;;;6.88;2.70;;;;;;;14.24;100.00;100508.41;5093805;28;20426;-67
2024/04/05 10:48:25;;;;;;;13.50;5.57;;;;;;;14.31;100.00;100502.56;5069325;28;20043;-67
2024/04/05 10:51:13;;;;;;;26.58;13.57;;;;;;;14.38;100.00;100502.97;5061890;28;20045;-67
2024/04/05 10:54:16;;;;;;;105.40;53.33;;;;;;;14.43;100.00;100486.44;5063003;28;20389;-68
2024/04/05 10:57:03;;;;;;;25.98;13.60;;;;;;;14.47;100.00;100490.19;5063598;28;20128;-66
2024/04/05 10:59:50;;;;;;;61.60;31.55;;;;;;;14.51;100.00;100508.78;5094232;28;20040;-69
2024/04/05 11:02:43;;;;;;;44.65;25.45;;;;;;;14.50;100.00;100516.19;5083754;28;20075;-67
2024/04/05 11:05:30;;;;;;;88.60;49.67;;;;;;;14.52;100.00;100499.44;5079447;28;20077;-66
2024/04/05 11:08:17;;;;;;;76.63;40.97;;;;;;;14.57;100.00;100500.16;5139885;27;20133;-64
2024/04/05 11:11:13;;;;;;;219.88;115.05;;;;;;;14.69;100.00;100497.75;5122705;27;20047;-67
2024/04/05 11:14:05;;;;;;;135.13;75.88;;;;;;;14.72;100.00;100492.78;5078563;27;20055;-67
2024/04/05 11:17:01;;;;;;;34.92;18.17;;;;;;;14.72;100.00;100510.06;5064244;28;20078;-66
2024/04/05 11:19:48;;;;;;;;;;;;;;;14.73;100.00;100511.69;5067376;28;20074;-60
2024/04/05 11:22:35;;;;;;;169.48;99.55;;;;;;;14.80;100.00;100508.53;5082429;28;19931;-68
2024/04/05 11:25:22;;;;;;;106.20;61.40;;;;;;;14.79;100.00;100502.25;5072480;28;20040;-65
2024/04/05 11:28:14;;;;;;;164.35;97.60;;;;;;;14.80;100.00;100498.38;5082629;28;20043;-66
2024/04/05 11:31:01;;;;;;;127.72;71.40;;;;;;;14.83;100.00;100503.25;5031158;28;20052;-67
2024/04/05 11:33:48;;;;;;;58.15;35.30;;;;;;;14.77;100.00;100501.75;5080741;28;20495;-66
2024/04/05 11:36:35;;;;;;;58.30;31.75;;;;;;;14.81;100.00;100510.97;5097736;28;20075;-68
2024/04/05 11:39:24;;;;;;;111.57;67.38;;;;;;;14.85;100.00;100502.94;5098757;28;20047;-67
2024/04/05 11:42:11;;;;;;;93.97;53.35;;;;;;;14.86;100.00;100502.66;5071583;28;20039;-67
2024/04/05 11:44:58;;;;;;;113.28;68.78;;;;;;;14.86;100.00;100515.53;5082281;28;20047;-67
2024/04/05 11:47:46;;;;;;;156.02;87.40;;;;;;;14.84;100.00;100520.50;5095718;28;20043;-70
2024/04/05 11:50:35;;;;;;;61.63;36.67;;;;;;;14.88;100.00;100516.84;5094222;28;20555;-69
2024/04/05 11:53:22;;;;;;;91.78;53.35;;;;;;;14.94;100.00;100514.84;5094262;28;20461;-68
2024/04/05 11:56:09;;;;;;;32.03;18.40;;;;;;;14.95;100.00;100527.44;5096871;28;20054;-66
2024/04/05 11:58:57;;;;;;;96.80;58.13;;;;;;;14.94;100.00;100522.28;5088732;28;20043;-69
2024/04/05 12:01:44;;;;;;;62.60;39.13;;;;;;;14.96;100.00;100539.22;5073707;28;20139;-72
2024/04/05 12:04:31;;;;;;;82.80;49.33;;;;;;;14.93;100.00;100551.59;5072810;28;20048;-67
2024/04/05 12:07:18;;;;;;;65.75;37.05;;;;;;;14.89;100.00;100551.41;5098586;28;20569;-67
2024/04/05 12:10:06;;;;;;;130.20;79.05;;;;;;;14.88;100.00;100566.22;5072028;28;20039;-67
2024/04/05 12:12:55;;;;;;;50.25;27.75;;;;;;;14.86;100.00;100571.25;5074573;28;20048;-67
2024/04/05 12:15:43;;;;;;;28.50;14.63;;;;;;;14.81;100.00;100589.69;5094443;28;20048;-67
2024/04/05 12:18:30;;;;;;;23.80;10.45;;;;;;;14.73;100.00;100598.63;5082228;28;20079;-68
2024/04/05 12:21:17;;;;;;;49.95;20.73;;;;;;;14.63;100.00;100599.63;5089337;28;20074;-68
2024/04/05 12:24:04;;;;;;;52.90;26.40;;;;;;;14.59;100.00;100598.59;5092657;28;20071;-69
2024/04/05 12:26:52;;;;;;;41.72;17.25;;;;;;;14.55;100.00;100595.66;5052517;28;20048;-65
2024/04/05 12:29:41;;;;;;;74.75;39.75;;;;;;;14.59;100.00;100609.56;5086412;28;20071;-66
2024/04/05 12:32:28;;;;;;;18.48;9.23;;;;;;;14.56;100.00;100610.97;5098441;28;20048;-65
2024/04/05 12:35:16;;;;;;;83.97;48.65;;;;;;;14.58;100.00;100605.19;5089738;28;20043;-64
2024/04/05 12:38:03;;;;;;;25.35;15.05;;;;;;;14.63;100.00;100624.31;5099162;28;20518;-67
2024/04/05 12:40:56;;;;;;;32.28;19.05;;;;;;;14.64;100.00;100614.94;5084301;28;20035;-69
2024/04/05 12:43:43;;;;;;;41.75;23.20;;;;;;;14.60;100.00;100624.88;5068045;28;20043;-67